AirNav   Air Wisconsin pilot careers
 
 1256 users online  

2D6 Bannock Heliport
Bannock, Ohio, USA

GOING TO BANNOCK?


FAA INFORMATION EFFECTIVE 08 NOVEMBER 2018

Location

FAA Identifier: 2D6
Lat/Long: 40-06-25.2510N / 080-58-31.3440W
40-06.420850N / 080-58.522400W
40.1070142 / -80.9753733
(estimated)
Elevation: 1100 ft. / 335 m (estimated)
Variation: 07W (1985)
Time zone: UTC -5 (UTC -4 during Daylight Saving Time)
Zip code: 43950

Heliport Operations

Heliport use: Open to the public
Activation date: 09/1975
Control tower: no
ARTCC: CLEVELAND CENTER
FSS: CLEVELAND FLIGHT SERVICE STATION
NOTAMs facility: CLE (NOTAM-D service available)
Attendance: MON-FRI 0800-1600
Wind indicator: no
Segmented circle: no

Heliport Communications

CTAF: 122.9
WX ASOS at HLG (16 nm E): 127.375 (304-277-3504)
WX AWOS-3 at MPG (17 nm SE): 119.05 (304-845-2959)
  • APCH/DEP SVC PRVVD BY CLEVELAND CENTER (ZOB) 126.95/239.9 (BELMONT RCAG).

Nearby radio navigation aids

VOR radial/distance  VOR name  Freq  Var
AIRr314/9.0BELLAIRE VOR/DME117.1007W
HLGr251/20.8WHEELING VOR/DME112.2007W
CTWr115/24.1NEWCOMERSTOWN VOR/DME111.8007W

 
NDB name  Hdg/Dist  Freq  Var  ID
CADIZ174/8.023907WCFX -.-. ..-. -..-

Heliport Services

Airframe service: NONE
Powerplant service: NONE
Bottled oxygen: NONE
Bulk oxygen: NONE

Runway Information

Helipad H1

Dimensions: 20 x 20 ft. / 6 x 6 m
Surface: concrete, in good condition
Latitude: 40-06.420850N
Longitude: 080-58.522400W
Elevation: 1100.0 ft.
Traffic pattern: leftleft

Heliport Ownership and Management from official FAA records

Ownership: Privately-owned
Owner: OHIO RIVER COLLIERIES CO
70245 BANNOCK UNIONTOWN RD
ST CLAIRSVILLE, OH 43950
Phone 740-968-3504
Manager: TOM GENTILE
70245 BANNOCK UNIONTOWN ROAD
ST CLAIRSVILLE, OH 43950
Phone 740-968-3504

Heliport Operational Statistics

Aircraft operations: 12/year *
100% transient general aviation
* for 12-month period ending 07 July 2016

Additional Remarks

A52-H1 35 FT POLES 66 FT NW; 35 FT PLINE 240 FT NW.
APCH/DEP SVC PRVVD BY CLEVELAND CENTER (ZOB) 126.95/239.9 OR CALL ZOB ON PH# 440-774-0442.

Instrument Procedures

There are no published instrument procedures at 2D6.

Some nearby airports with instrument procedures:

2P7 - Alderman Airport (3 nm S)
8G6 - Harrison County Airport (8 nm N)
6G5 - Barnesville-Bradfield Airport (12 nm SW)
KHLG - Wheeling Ohio County Airport (16 nm E)
KMPG - Marshall County Airport (17 nm SE)
2G2 - Jefferson County Airpark (20 nm NE)
 
Loc | Ops | Rwys | IFR | FBO | Links
Com | Nav | Svcs | Stats | Notes


 
Area around 2D6 (Bannock Heliport)
 
Road maps at: MapQuest Bing Google
 
Aerial photo
No photo
 
Sectional chart

 
Airport distance calculator
Flying to Bannock Heliport? Find the distance to fly.

From to 2D6

Sunrise and sunset
Times for 21-Nov-2018
 Local
(UTC-5)
 Zulu
(UTC)
Morning civil twilight06:4811:48
Sunrise07:1712:17
Sunset17:0222:02
Evening civil twilight17:3222:32

Current date and time
Zulu (UTC)  21-Nov-2018 19:09:16
Local (UTC-5)  21-Nov-2018 14:09:16
 
METAR
KHLG 
15nm E 
211853Z 27009KT 7SM OVC013 00/M03 A3020 RMK AO2 SLP242 T00001033
KCDI 
29nm W 
211855Z AUTO 25003KT 10SM OVC020 01/M02 A3025 RMK AO2 T00141018
KPHD 
30nm NW 
211853Z AUTO 27007KT 6SM HZ OVC015 01/M02 A3023 RMK AO2 SLP248 T00061022
TAF
KHLG 
15nm E 
211733Z 2118/2218 26012G20KT P6SM OVC015 FM212200 30012G20KT P6SM VCSH OVC020 FM220000 34008KT P6SM BKN025 FM220400 04006KT P6SM BKN050
NOTAMs
Click for the latest NOTAMs
NOTAMs are issued by the DoD/FAA and will open in a separate window not controlled by AirNav.

 

 
 

Would you like to see your business listed on this page?

 If your business provides an interesting product or service to pilots, flight crews, aircraft, or users of the Bannock Heliport, you should consider listing it here.  To start the listing process, click on the button below
 
Add a business
 

Other Pages about Bannock Heliport

Update a link
 
Copyright © AirNav, LLC. All rights reserved. Privacy Policy  Contact